This is the latest recevied weather packets stored in our database for station/object W3UGI. If no packets are shown the sender has not sent any weather packets the latest 1 day(s).
| Time | Temp. | Humidity | Pressure | Rain* | Wind** | Luminosity | Snow |
|---|---|---|---|---|---|---|---|
| 1778111309 | 19.44° C | 84% | 1007.2 hPa | 0 mm | - | - | - |
| 1778109535 | 19.44° C | 84% | 1007.1 hPa | 0.25 mm | - | - | - |
| 1778106812 | 20° C | 83% | 1007.1 hPa | 0 mm | - | - | - |
| 1778102303 | 19.44° C | 85% | 1006.7 hPa | 0 mm | - | - | - |
| 1778095107 | 17.22° C | 88% | 1007.1 hPa | 0 mm | - | - | - |
| 1778094220 | 17.22° C | 88% | 1007.4 hPa | 0 mm | - | - | - |
| 1778093312 | 17.22° C | 88% | 1007.4 hPa | 0 mm | - | - | - |
| 1778087896 | 16.67° C | 88% | 1008 hPa | 0.25 mm | - | - | - |
| 1778085229 | 16.67° C | 88% | 1008.1 hPa | 1.78 mm | - | - | - |
| 1778083419 | 16.67° C | 88% | 1009.1 hPa | 2.29 mm | - | - | - |
| 1778082511 | 16.67° C | 88% | 1009.4 hPa | 1.78 mm | - | - | - |
| 1778080700 | 17.22° C | 86% | 1009.3 hPa | 0.51 mm | - | - | - |
| 1778079796 | 17.78° C | 84% | 1009.2 hPa | 0.25 mm | - | - | - |
| 1778078907 | 18.33° C | 82% | 1009.1 hPa | 0 mm | - | - | - |
| 1778077112 | 19.44° C | 74% | 1009.2 hPa | 0 mm | - | - | - |
| 1778074402 | 18.89° C | 76% | 1009.1 hPa | 0 mm | - | - | - |
| 1778073506 | 19.44° C | 75% | 1009.1 hPa | 0 mm | - | - | - |
| 1778069032 | 18.33° C | 80% | 1009.2 hPa | 0 mm | - | - | - |
| 1778068142 | 17.78° C | 80% | 1009.1 hPa | 0 mm | - | - | - |
| 1778068111 | 17.78° C | 80% | 1009.1 hPa | 0 mm | - | - | - |
| 1778067206 | 17.78° C | 81% | 1009.1 hPa | 0 mm | - | - | - |
| 1778064511 | 17.78° C | 82% | 1009 hPa | 0 mm | - | - | - |
| 1778062701 | 17.78° C | 82% | 1008.9 hPa | 0 mm | - | - | - |
| 1778057319 | 18.33° C | 81% | 1008.8 hPa | 0 mm | - | - | - |
| 1778055504 | 17.78° C | 82% | 1009 hPa | 0 mm | - | - | - |
* Rain latest hour (hover to see other rain measurements)
** Current wind speed in m/s (hover to see current wind gust speed)